x

Stonewall Bank - 20nm West Of Newport, Or (46050) Wave Buoy

10:50am - Sun 20th Apr 2014 All times are PDT. -7 hours from GMT.

  • Sig Wave height 18.7ft
  • Swell Direction
  • Peak Period 16s
  • Average Period 12s
  • Wind
    11mph, 16mph gusts
  • Sea Temp 52°f
  • Air Temp 51°f
  • Sea Pressure 1025mb
  • Stonewall Bank - 20nm West Of Newport, Or
  • Stonewall Bank - 20nm West Of Newport, Or

More Historic Weather Station data

Upgrade to MSW Pro to gain access to the past 30 days of data for over 8000 Wavebouys and Weather Stations around the globe.

Join Pro

Comparision Forecast

View Surf forecast
   
Sun 04/20 10:50am 18.5ft 16s 12s 11 16 mph 1025mb 52f 51f
9:50am 17ft 16s 11s 11 16 mph 1024.7mb 52f 51f
8:50am 19.5ft 16s 12s 13 20 mph 1024.7mb 51f 51f
7:50am 17.5ft 16s 11s 13 16 mph 1024.8mb 52f 51f
6:50am 19.5ft 16s 12s 13 18 mph 1024.6mb 52f 51f
5:50am 20.5ft 16s 12s 11 16 mph 1024.3mb 52f 51f
4:50am 19ft 16s 12s 9 11 mph 1024.5mb 52f 51f
3:50am 18.5ft 17s 12s 7 11 mph 1024.6mb 52f 51f
2:50am 19ft 16s 12s 7 11 mph 1024.6mb 52f 51f
1:50am 22ft 16s 12s 7 9 mph 1024.7mb 52f 51f
12:50am 16.5ft 16s 11s 7 11 mph 1024.6mb 52f 52f
Sat 04/19 11:50pm 21ft 16s 12s 9 11 mph 1024.4mb 52f 52f
10:50pm 14.5ft 16s 10s 7 11 mph 1024mb 52f 52f
9:50pm 12ft 12s 9s 9 13 mph 1023.5mb 52f 52f
8:50pm 8.5ft 13s 7s 9 11 mph 1022.7mb 52f 52f
7:50pm 9ft 8s 7s 11 13 mph 1022.1mb 52f 52f
6:50pm 9ft 8s 7s 13 16 mph 1021.8mb 52f 52f
5:50pm 8.5ft 8s 7s 13 16 mph 1021mb 52f 53f
4:50pm 8ft 8s 6s 13 18 mph 1020.2mb 52f 53f
3:50pm 9ft 8s 7s 13 16 mph 1019.3mb 52f 52f
2:50pm 9ft 8s 6s 16 20 mph 1018.2mb 52f 52f
1:50pm 8.5ft 8s 6s 18 22 mph 1016.8mb 52f 52f
12:50pm 9.5ft 7s 7s 20 29 mph 1015.5mb 52f 53f
11:50am 9ft 7s 6s 20 25 mph 1014.3mb 51f 53f
10:50am 9ft 7s 6s 20 25 mph 1012.7mb 51f 53f
9:50am 9ft 7s 6s 20 22 mph 1011mb 51f 52f
8:50am 8ft 6s 6s 29 38 mph 1009.5mb 51f 50f
7:50am 7.5ft 6s 6s 27 34 mph 1009.2mb 51f 50f
6:50am 7ft 5s 6s 25 31 mph 1009mb 51f 51f
5:50am 6.5ft 10s 6s 25 29 mph 1009.3mb 51f 51f
4:50am 6.5ft 14s 6s 25 29 mph 1009.5mb 51f 51f
3:50am 6.5ft 14s 7s 20 25 mph 1010.3mb 51f 51f
2:50am 6ft 10s 8s 18 20 mph 1010.2mb 52f 51f
1:50am 6.5ft 13s 8s 13 16 mph 1010.5mb 52f 52f
12:50am 6.5ft 10s 8s 11 13 mph 1010.6mb 52f 53f
Fri 04/18 11:50pm 7ft 10s 8s 11 13 mph 1010.9mb 52f 54f
10:50pm 7ft 10s 8s 11 13 mph 1011.2mb 51f 54f
9:50pm 6.5ft 10s 7s 9 11 mph 1011.8mb 52f 52f
8:50pm 7ft 11s 8s 9 11 mph 1012.7mb 51f 51f
7:50pm 6.5ft 11s 7s 11 13 mph 1013.5mb 52f 51f
6:50pm 6ft 11s 6s 13 16 mph 1013.8mb 52f 51f
5:50pm 6.5ft 10s 7s 16 18 mph 1015mb 52f 51f
4:50pm 6.5ft 11s 7s 16 18 mph 1015.8mb 53f 51f
3:50pm 7.5ft 11s 8s 13 16 mph 1017.1mb 53f 51f
2:50pm 7ft 15s 8s 13 16 mph 1018.1mb 52f 51f
1:50pm 7.5ft 11s 8s 11 13 mph 1018.4mb 52f 50f
12:50pm 7ft 10s 7s 9
mph
1019.7mb 52f 50f
11:50am 8ft 11s 8s 9 11 mph 1020.4mb 52f 49f
10:50am 8ft 9s 8s 4 9 mph 1021mb 51f 49f
9:50am 8ft 10s 7s 7 9 mph 1020.5mb 51f 48f
8:50am 8ft 11s 8s 9 11 mph 1020.2mb 51f 49f
7:50am 8.5ft 11s 8s 7 9 mph 1020.3mb 51f 50f
6:50am 8ft 11s 7s 7 9 mph 1020.2mb 51f 49f
5:50am 8ft 11s 7s 7
mph
1019.6mb 51f 49f
4:50am 8.5ft 10s 8s 7 9 mph 1019.7mb 52f 50f
3:50am 8ft 11s 7s 9 11 mph 1019.5mb 52f 50f
2:50am 8ft 11s 7s 11 13 mph 1019.3mb 52f 50f
1:50am 8ft 11s 7s 9 11 mph 1019.1mb 52f 50f
12:50am 9ft 11s 8s 11 13 mph 1018.9mb 52f 50f
Thu 04/17 11:50pm 9ft 12s 7s 11 13 mph 1018.5mb 52f 50f
10:50pm 8ft 8s 7s 11 16 mph 1018mb 52f 51f
9:50pm 9ft 11s 7s 13 16 mph 1017.6mb 52f 51f
8:50pm 8ft 11s 7s 13 18 mph 1016.8mb 52f 51f
7:50pm 8ft 11s 7s 16 20 mph 1016mb 52f 51f
6:50pm 8.5ft 11s 7s 16 18 mph 1015.1mb 52f 51f
5:50pm 8ft 12s 7s 18 22 mph 1014.2mb 52f 51f
4:50pm 8ft 11s 6s 20 22 mph 1012.8mb 52f 52f
3:50pm 9ft 11s 7s 27 31 mph 1011.4mb 52f 52f
2:50pm 7.5ft 11s 6s 25 31 mph 1011.3mb 52f 51f
1:50pm 7ft 10s 7s 22 29 mph 1011.6mb 52f 52f
12:50pm 8ft 11s 8s 20 25 mph 1011.8mb 52f 52f
11:50am 7ft 11s 8s 18 20 mph 1012.1mb 52f 52f
10:50am 7ft 12s 8s 16 18 mph 1012.2mb 52f 52f
9:50am 7ft 11s 9s 11 13 mph 1012.2mb 52f 52f
8:50am 8ft 11s 9s 9 11 mph 1012.8mb 52f 52f
7:50am 7.5ft 11s 9s 9 11 mph 1012.9mb 52f 51f
6:50am 7ft 11s 9s 9
mph
1012.7mb 52f 51f
5:50am 7.5ft 11s 9s 7 9 mph 1013.1mb 52f 51f
4:50am 8ft 11s 9s 9 11 mph 1013.4mb 52f 51f
3:50am 8ft 11s 9s 9 11 mph 1013.7mb 52f 51f
2:50am 8ft 11s 9s 11 13 mph 1014.4mb 52f 51f
1:50am 7ft 11s 8s 9 11 mph 1015mb 52f 51f
12:50am 7ft 12s 8s 11
mph
1015.5mb 52f 51f
Wed 04/16 11:50pm 8ft 11s 9s 9 11 mph 1016mb 52f 51f
10:50pm 8ft 13s 9s 7 9 mph 1016.5mb 52f 51f
9:50pm 8ft 12s 8s 9 11 mph 1017.1mb 53f 52f
8:50pm 7.5ft 13s 8s 11 13 mph 1017.2mb 52f 51f
7:50pm 7ft 12s 8s 13 16 mph 1017.1mb 52f 51f
6:50pm 7ft 12s 8s 16 18 mph 1017.6mb 52f 52f